Home > Products > Valid Products > TAF

000
FTUS43 KIWX 180500
TAFFWA
TAF
KFWA 180524Z 1806/1906 21006KT P6SM SCT050 BKN200
     FM181000 VRB04KT P6SM VCSH BKN050
     FM181500 33007KT P6SM BKN050=



000
FTUS43 KIWX 172300
TAFFWA
TAF
KFWA 172339Z 1800/1824 23012KT P6SM FEW050 BKN200
     FM180100 22007KT P6SM SCT040 BKN200
     FM181000 VRB04KT P6SM VCSH BKN050
     FM181500 33007KT P6SM BKN050=



000
FTUS43 KIWX 171700
TAFFWA
TAF
KFWA 171722Z 1718/1818 21014G21KT P6SM FEW050 BKN200
     FM180100 20007KT P6SM SCT040 BKN200
     FM181000 32005KT P6SM VCSH BKN030=



000
FTUS43 KIWX 171100
TAFFWA
TAF
KFWA 171120Z 1712/1812 14009KT P6SM FEW150 SCT250
     FM171600 21013G21KT P6SM FEW060 BKN200
     FM180100 20007KT P6SM BKN100=



000
FTUS43 KIWX 170500
TAFFWA
TAF
KFWA 170520Z 1706/1806 12010KT P6SM FEW150 SCT250
     FM171500 21013G21KT P6SM FEW060 BKN200
     FM180100 20007KT P6SM BKN100=



000
FTUS43 KIWX 162300 CCA
TAFFWA
TAF COR
KFWA 162337Z 1700/1724 13012G20KT P6SM SCT250
     FM170100 12010KT P6SM SCT250
     FM171500 20013G21KT P6SM FEW050 BKN200=



000
FTUS43 KIWX 162300
TAFFWA
TAF
KFWA 162336Z 1700/1724 13012G20KT P6SM SCT150
     FM170100 12010KT P6SM SCT150
     FM171500 20013G21KT P6SM FEW050 BKN200=



000
FTUS43 KIWX 161700
TAFFWA
TAF
KFWA 161720Z 1618/1718 12012G22KT P6SM SCT150
     FM170000 11009KT P6SM SCT150
     FM171500 19012G20KT P6SM SCT120=



000
FTUS43 KIWX 161100
TAFFWA
TAF
KFWA 161120Z 1612/1712 16005KT P6SM FEW250
     FM161500 15012G20KT P6SM SCT150
     FM170000 14011KT P6SM BKN150=



000
FTUS43 KIWX 160500
TAFFWA
TAF
KFWA 160520Z 1606/1706 VRB03KT P6SM SKC
     FM161200 15007KT P6SM FEW250
     FM161500 15012G20KT P6SM SCT150=



000
FTUS43 KIWX 152300
TAFFWA
TAF
KFWA 152340Z 1600/1624 31007KT P6SM FEW060
     FM160200 VRB03KT P6SM SKC
     FM161000 15006KT P6SM FEW250
     FM161500 16012G20KT P6SM SCT150=



000
FTUS43 KIWX 151700
TAFFWA
TAF
KFWA 151724Z 1518/1618 31015G25KT P6SM BKN040
     FM152200 30007KT P6SM FEW070
     FM160300 VRB03KT P6SM SKC=



000
FTUS43 KIWX 151100
TAFFWA
TAF
KFWA 151120Z 1512/1612 33014KT P6SM VCSH BKN025
     FM151400 33013G21KT P6SM BKN040
     FM152200 30007KT P6SM FEW070
     FM160300 VRB03KT P6SM SKC=



    US Dept of Commerce
    National Oceanic and Atmospheric Administration
    National Weather Service
    1325 East West Highway
    Silver Spring, MD 20910
    Page Author: NWS Internet Services Team
Disclaimer
Information Quality
Credits
Glossary
Privacy Policy
Freedom of Information Act (FOIA)
About Us
Career Opportunities